Impacts METAR Board
IDs:

KFLL - Ft Lauderdale-Hollyw, FL, US

Updated at: 0800 UTC 19 Jun 2018
Potential Impact None Slight Moderate High
Time 18/20Z 18/21Z 18/22Z 18/23Z 19/00Z 19/01Z 19/02Z 19/03Z 19/04Z 19/05Z 19/06Z 19/07Z 19/08Z
Temp86 86 85 84 82 82 81 81 81 81 80 79 79
Dewpt77 77 77 77 76 76 76 76 76 75 75 75 75
Altim30.05 30.04 30.03 30.03 30.04 30.03 30.04 30.05 30.05 30.04 30.02 29.99 29.99
VIS10 10 10 10 10 10 10 10 10 10 10 10 10
CIG250 -- -- -- -- -- -- -- -- -- -- -- --
CoverBKNSCTSCTSCTSCTSCTFEWSCTSCTFEWSCTFEWFEW
FltCatVFRVFRVFRVFRVFRVFRVFRVFRVFRVFRVFRVFRVFR
WX--------------------------
WDir5060100706090607080901008040
WSpd10 10 9 9 8 7 6 6 7 5 5 4 3
WGst-- -- -- -- -- -- -- -- -- -- -- -- --
Raw hourly METARs
KFLL 181953Z 05010KT 10SM SCT027 BKN250 30/25 A3005 RMK AO2 SLP176 T03000250
KFLL 182053Z 06010KT 10SM SCT024 SCT250 30/25 A3004 RMK AO2 SLP172 T03000250 56013
KFLL 182153Z 10009KT 10SM SCT026 SCT250 29/25 A3003 RMK AO2 SLP169 T02940250
KFLL 182253Z 07009KT 10SM SCT023 SCT250 29/25 A3003 RMK AO2 SLP167 T02890250
KFLL 182353Z 06008KT 10SM FEW023 SCT250 28/24 A3004 RMK AO2 SLP171 T02780244 10311 20278 55001
KFLL 190053Z 09007KT 10SM SCT023 SCT200 28/24 A3003 RMK AO2 SLP168 CONS LTGIC DSNT SW CB DSNT SW MOV SW T02780244
KFLL 190153Z 06006KT 10SM FEW024 27/24 A3004 RMK AO2 SLP170 T02720244
KFLL 190253Z 07006KT 10SM SCT022 27/24 A3005 RMK AO2 SLP174 FRQ LTGICCACG DSNT SW CB DSNT SW MOV SW T02720244 53003
KFLL 190353Z 08007KT 10SM SCT022 27/24 A3005 RMK AO2 SLP176 T02720244
KFLL 190453Z 09005KT 10SM FEW026 27/24 A3004 RMK AO2 SLP171 T02720239 403110261
KFLL 190553Z 10005KT 10SM SCT024 27/24 A3002 RMK AO2 SLP164 T02670239 10278 20267 58010
KFLL 190653Z 08004KT 10SM FEW025 26/24 A2999 RMK AO2 SLP156 T02610239
KFLL 190753Z 04003KT 10SM FEW026 26/24 A2999 RMK AO2 SLP153 T02610239



Page loaded:  08:53 UTC  |   01:53 AM Pacific  |   02:53 AM Mountain  |   03:53 AM Central  |   04:53 AM Eastern

 

ADVISORIES

FORECASTS

FORECASTS

OBSERVATIONS

USER TOOLS

ABOUT US